sensor_id;sensor_type;location;lat;lon;timestamp;P1;durP1;ratioP1;P2;durP2;ratioP2
20709;SDS011;10516;51.518;9.864;2022-12-08T00:01:23;23.83;;;12.85;;
20709;SDS011;10516;51.518;9.864;2022-12-08T00:03:50;22.73;;;12.52;;
20709;SDS011;10516;51.518;9.864;2022-12-08T00:06:35;20.92;;;12.85;;
20709;SDS011;10516;51.518;9.864;2022-12-08T00:12:03;23.45;;;14.10;;
20709;SDS011;10516;51.518;9.864;2022-12-08T00:14:40;21.98;;;12.30;;
20709;SDS011;10516;51.518;9.864;2022-12-08T00:17:08;22.67;;;11.82;;
20709;SDS011;10516;51.518;9.864;2022-12-08T00:19:35;19.67;;;12.30;;
20709;SDS011;10516;51.518;9.864;2022-12-08T00:22:03;20.42;;;11.95;;
20709;SDS011;10516;51.518;9.864;2022-12-08T00:24:30;20.52;;;11.98;;
20709;SDS011;10516;51.518;9.864;2022-12-08T00:26:57;19.70;;;11.70;;
20709;SDS011;10516;51.518;9.864;2022-12-08T00:29:23;20.80;;;12.07;;
20709;SDS011;10516;51.518;9.864;2022-12-08T00:31:49;22.55;;;12.10;;
20709;SDS011;10516;51.518;9.864;2022-12-08T00:34:14;20.58;;;13.27;;
20709;SDS011;10516;51.518;9.864;2022-12-08T00:36:40;22.33;;;12.43;;
20709;SDS011;10516;51.518;9.864;2022-12-08T00:39:06;25.40;;;12.68;;
20709;SDS011;10516;51.518;9.864;2022-12-08T00:41:32;25.42;;;14.32;;
20709;SDS011;10516;51.518;9.864;2022-12-08T00:44:16;23.73;;;12.40;;
20709;SDS011;10516;51.518;9.864;2022-12-08T00:46:45;19.17;;;11.98;;
20709;SDS011;10516;51.518;9.864;2022-12-08T00:49:12;34.47;;;15.18;;
20709;SDS011;10516;51.518;9.864;2022-12-08T00:51:38;30.83;;;17.08;;
20709;SDS011;10516;51.518;9.864;2022-12-08T00:54:04;23.13;;;12.30;;
20709;SDS011;10516;51.518;9.864;2022-12-08T00:56:30;21.90;;;12.52;;
20709;SDS011;10516;51.518;9.864;2022-12-08T00:58:56;24.55;;;14.13;;
20709;SDS011;10516;51.518;9.864;2022-12-08T01:01:22;21.83;;;13.30;;
20709;SDS011;10516;51.518;9.864;2022-12-08T01:03:48;22.23;;;14.43;;
20709;SDS011;10516;51.518;9.864;2022-12-08T01:06:13;22.10;;;12.45;;
20709;SDS011;10516;51.518;9.864;2022-12-08T01:08:39;22.25;;;13.65;;
20709;SDS011;10516;51.518;9.864;2022-12-08T01:11:09;22.17;;;12.75;;
20709;SDS011;10516;51.518;9.864;2022-12-08T01:13:36;28.10;;;14.90;;
20709;SDS011;10516;51.518;9.864;2022-12-08T01:16:02;23.33;;;14.23;;
20709;SDS011;10516;51.518;9.864;2022-12-08T01:18:27;23.23;;;13.27;;
20709;SDS011;10516;51.518;9.864;2022-12-08T01:20:53;22.50;;;14.10;;
20709;SDS011;10516;51.518;9.864;2022-12-08T01:23:19;22.20;;;14.20;;
20709;SDS011;10516;51.518;9.864;2022-12-08T01:25:44;24.48;;;13.93;;
20709;SDS011;10516;51.518;9.864;2022-12-08T01:28:10;25.67;;;15.80;;
20709;SDS011;10516;51.518;9.864;2022-12-08T01:30:39;26.83;;;14.90;;
20709;SDS011;10516;51.518;9.864;2022-12-08T01:33:04;31.02;;;14.13;;
20709;SDS011;10516;51.518;9.864;2022-12-08T01:35:30;25.52;;;15.15;;
20709;SDS011;10516;51.518;9.864;2022-12-08T01:37:55;28.70;;;16.48;;
20709;SDS011;10516;51.518;9.864;2022-12-08T01:40:21;26.85;;;15.80;;
20709;SDS011;10516;51.518;9.864;2022-12-08T01:42:47;26.17;;;16.20;;
20709;SDS011;10516;51.518;9.864;2022-12-08T01:45:14;23.20;;;14.52;;
20709;SDS011;10516;51.518;9.864;2022-12-08T01:47:51;28.17;;;16.27;;
20709;SDS011;10516;51.518;9.864;2022-12-08T01:50:20;29.67;;;17.35;;
20709;SDS011;10516;51.518;9.864;2022-12-08T01:55:42;29.27;;;15.27;;
20709;SDS011;10516;51.518;9.864;2022-12-08T01:58:15;29.38;;;16.23;;
20709;SDS011;10516;51.518;9.864;2022-12-08T02:00:51;27.35;;;15.88;;
20709;SDS011;10516;51.518;9.864;2022-12-08T02:03:26;33.05;;;15.70;;
20709;SDS011;10516;51.518;9.864;2022-12-08T02:05:55;27.67;;;16.08;;
20709;SDS011;10516;51.518;9.864;2022-12-08T02:08:22;23.60;;;15.32;;
20709;SDS011;10516;51.518;9.864;2022-12-08T02:10:48;27.77;;;15.38;;
20709;SDS011;10516;51.518;9.864;2022-12-08T02:13:16;27.88;;;17.60;;
20709;SDS011;10516;51.518;9.864;2022-12-08T02:15:48;26.00;;;15.75;;
20709;SDS011;10516;51.518;9.864;2022-12-08T02:18:25;32.17;;;17.15;;
20709;SDS011;10516;51.518;9.864;2022-12-08T02:21:21;34.28;;;18.58;;
20709;SDS011;10516;51.518;9.864;2022-12-08T02:38:30;29.52;;;17.75;;
20709;SDS011;10516;51.518;9.864;2022-12-08T02:41:20;28.58;;;16.17;;
20709;SDS011;10516;51.518;9.864;2022-12-08T02:44:19;26.23;;;16.63;;
20709;SDS011;10516;51.518;9.864;2022-12-08T02:46:51;30.80;;;18.70;;
20709;SDS011;10516;51.518;9.864;2022-12-08T02:49:26;35.80;;;18.42;;
20709;SDS011;10516;51.518;9.864;2022-12-08T02:52:46;32.17;;;19.45;;
20709;SDS011;10516;51.518;9.864;2022-12-08T02:54:49;26.20;;;18.43;;
20709;SDS011;10516;51.518;9.864;2022-12-08T03:00:10;28.00;;;16.40;;
20709;SDS011;10516;51.518;9.864;2022-12-08T03:07:59;31.15;;;17.45;;
20709;SDS011;10516;51.518;9.864;2022-12-08T03:10:36;33.55;;;17.42;;
20709;SDS011;10516;51.518;9.864;2022-12-08T03:13:13;28.43;;;17.87;;
20709;SDS011;10516;51.518;9.864;2022-12-08T03:15:44;29.20;;;17.55;;
20709;SDS011;10516;51.518;9.864;2022-12-08T03:18:13;27.92;;;16.52;;
20709;SDS011;10516;51.518;9.864;2022-12-08T03:20:40;27.83;;;18.40;;
20709;SDS011;10516;51.518;9.864;2022-12-08T03:23:09;37.38;;;20.00;;
20709;SDS011;10516;51.518;9.864;2022-12-08T03:25:40;33.90;;;18.25;;
20709;SDS011;10516;51.518;9.864;2022-12-08T03:28:12;27.53;;;17.27;;
20709;SDS011;10516;51.518;9.864;2022-12-08T03:30:38;28.10;;;16.85;;
20709;SDS011;10516;51.518;9.864;2022-12-08T03:33:06;31.25;;;17.25;;
20709;SDS011;10516;51.518;9.864;2022-12-08T03:35:38;26.88;;;16.05;;
20709;SDS011;10516;51.518;9.864;2022-12-08T03:38:09;38.15;;;17.38;;
20709;SDS011;10516;51.518;9.864;2022-12-08T03:40:37;31.95;;;16.05;;
20709;SDS011;10516;51.518;9.864;2022-12-08T03:43:03;30.25;;;16.60;;
20709;SDS011;10516;51.518;9.864;2022-12-08T03:45:29;26.17;;;15.65;;
20709;SDS011;10516;51.518;9.864;2022-12-08T03:47:54;28.08;;;16.75;;
20709;SDS011;10516;51.518;9.864;2022-12-08T03:50:20;26.05;;;16.50;;
20709;SDS011;10516;51.518;9.864;2022-12-08T03:52:46;27.27;;;16.02;;
20709;SDS011;10516;51.518;9.864;2022-12-08T03:55:11;30.70;;;15.90;;
20709;SDS011;10516;51.518;9.864;2022-12-08T03:57:36;26.02;;;16.27;;
20709;SDS011;10516;51.518;9.864;2022-12-08T04:00:03;28.05;;;17.52;;
20709;SDS011;10516;51.518;9.864;2022-12-08T04:02:31;23.83;;;15.98;;
20709;SDS011;10516;51.518;9.864;2022-12-08T04:04:56;34.53;;;17.08;;
20709;SDS011;10516;51.518;9.864;2022-12-08T04:07:22;27.58;;;14.50;;
20709;SDS011;10516;51.518;9.864;2022-12-08T04:09:47;32.72;;;18.17;;
20709;SDS011;10516;51.518;9.864;2022-12-08T04:12:12;27.35;;;16.15;;
20709;SDS011;10516;51.518;9.864;2022-12-08T04:14:38;29.25;;;16.40;;
20709;SDS011;10516;51.518;9.864;2022-12-08T04:17:03;30.60;;;17.05;;
20709;SDS011;10516;51.518;9.864;2022-12-08T04:19:29;30.83;;;16.52;;
20709;SDS011;10516;51.518;9.864;2022-12-08T04:21:54;28.55;;;16.00;;
20709;SDS011;10516;51.518;9.864;2022-12-08T04:24:19;27.33;;;16.55;;
20709;SDS011;10516;51.518;9.864;2022-12-08T04:26:45;25.95;;;16.73;;
20709;SDS011;10516;51.518;9.864;2022-12-08T04:29:10;29.38;;;16.00;;
20709;SDS011;10516;51.518;9.864;2022-12-08T04:31:36;33.83;;;17.15;;
20709;SDS011;10516;51.518;9.864;2022-12-08T04:34:01;27.75;;;17.48;;
20709;SDS011;10516;51.518;9.864;2022-12-08T04:36:27;26.75;;;15.45;;
20709;SDS011;10516;51.518;9.864;2022-12-08T04:38:53;25.80;;;15.77;;
20709;SDS011;10516;51.518;9.864;2022-12-08T04:41:18;26.48;;;15.20;;
20709;SDS011;10516;51.518;9.864;2022-12-08T04:43:44;27.33;;;15.95;;
20709;SDS011;10516;51.518;9.864;2022-12-08T04:46:09;28.38;;;16.05;;
20709;SDS011;10516;51.518;9.864;2022-12-08T04:48:38;29.45;;;15.80;;
20709;SDS011;10516;51.518;9.864;2022-12-08T04:51:04;29.90;;;15.88;;
20709;SDS011;10516;51.518;9.864;2022-12-08T04:53:30;29.95;;;17.02;;
20709;SDS011;10516;51.518;9.864;2022-12-08T04:55:56;29.38;;;16.65;;
20709;SDS011;10516;51.518;9.864;2022-12-08T04:58:21;28.15;;;15.40;;
20709;SDS011;10516;51.518;9.864;2022-12-08T05:00:47;27.42;;;15.13;;
20709;SDS011;10516;51.518;9.864;2022-12-08T05:03:13;26.27;;;16.15;;
20709;SDS011;10516;51.518;9.864;2022-12-08T05:05:41;24.05;;;14.63;;
20709;SDS011;10516;51.518;9.864;2022-12-08T05:08:08;26.65;;;14.98;;
20709;SDS011;10516;51.518;9.864;2022-12-08T05:10:34;26.38;;;15.38;;
20709;SDS011;10516;51.518;9.864;2022-12-08T05:12:59;29.20;;;15.98;;
20709;SDS011;10516;51.518;9.864;2022-12-08T05:15:25;28.02;;;15.15;;
20709;SDS011;10516;51.518;9.864;2022-12-08T05:17:51;26.35;;;15.63;;
20709;SDS011;10516;51.518;9.864;2022-12-08T05:20:16;27.67;;;15.73;;
20709;SDS011;10516;51.518;9.864;2022-12-08T05:22:42;24.52;;;13.65;;
20709;SDS011;10516;51.518;9.864;2022-12-08T05:25:07;27.92;;;14.98;;
20709;SDS011;10516;51.518;9.864;2022-12-08T05:27:33;32.28;;;15.57;;
20709;SDS011;10516;51.518;9.864;2022-12-08T05:29:59;24.42;;;16.13;;
20709;SDS011;10516;51.518;9.864;2022-12-08T05:32:25;28.20;;;14.00;;
20709;SDS011;10516;51.518;9.864;2022-12-08T05:34:50;26.17;;;13.88;;
20709;SDS011;10516;51.518;9.864;2022-12-08T05:37:16;30.33;;;15.27;;
20709;SDS011;10516;51.518;9.864;2022-12-08T05:39:41;27.92;;;14.98;;
20709;SDS011;10516;51.518;9.864;2022-12-08T05:42:06;25.75;;;13.60;;
20709;SDS011;10516;51.518;9.864;2022-12-08T05:44:32;25.77;;;15.23;;
20709;SDS011;10516;51.518;9.864;2022-12-08T05:46:57;22.85;;;13.45;;
20709;SDS011;10516;51.518;9.864;2022-12-08T05:49:22;29.23;;;14.98;;
20709;SDS011;10516;51.518;9.864;2022-12-08T05:51:48;24.48;;;14.48;;
20709;SDS011;10516;51.518;9.864;2022-12-08T05:54:13;23.52;;;14.68;;
20709;SDS011;10516;51.518;9.864;2022-12-08T05:56:39;25.90;;;14.88;;
20709;SDS011;10516;51.518;9.864;2022-12-08T05:59:04;25.30;;;14.45;;
20709;SDS011;10516;51.518;9.864;2022-12-08T06:01:32;20.33;;;12.85;;
20709;SDS011;10516;51.518;9.864;2022-12-08T06:03:58;27.98;;;15.80;;
20709;SDS011;10516;51.518;9.864;2022-12-08T06:06:25;22.70;;;14.50;;
20709;SDS011;10516;51.518;9.864;2022-12-08T06:08:51;26.80;;;14.77;;
20709;SDS011;10516;51.518;9.864;2022-12-08T06:11:18;26.85;;;15.05;;
20709;SDS011;10516;51.518;9.864;2022-12-08T06:13:51;22.20;;;14.50;;
20709;SDS011;10516;51.518;9.864;2022-12-08T06:16:17;27.77;;;14.57;;
20709;SDS011;10516;51.518;9.864;2022-12-08T06:18:43;24.30;;;15.00;;
20709;SDS011;10516;51.518;9.864;2022-12-08T06:21:09;28.08;;;14.70;;
20709;SDS011;10516;51.518;9.864;2022-12-08T06:23:36;29.27;;;15.30;;
20709;SDS011;10516;51.518;9.864;2022-12-08T06:26:10;25.77;;;13.82;;
20709;SDS011;10516;51.518;9.864;2022-12-08T06:28:37;25.52;;;14.55;;
20709;SDS011;10516;51.518;9.864;2022-12-08T06:31:07;29.25;;;15.45;;
20709;SDS011;10516;51.518;9.864;2022-12-08T06:33:35;23.23;;;14.60;;
20709;SDS011;10516;51.518;9.864;2022-12-08T06:36:01;29.95;;;16.15;;
20709;SDS011;10516;51.518;9.864;2022-12-08T06:38:26;26.27;;;14.65;;
20709;SDS011;10516;51.518;9.864;2022-12-08T06:40:55;25.48;;;14.60;;
20709;SDS011;10516;51.518;9.864;2022-12-08T06:43:22;22.48;;;15.48;;
20709;SDS011;10516;51.518;9.864;2022-12-08T06:45:48;26.58;;;14.57;;
20709;SDS011;10516;51.518;9.864;2022-12-08T06:48:13;25.67;;;14.70;;
20709;SDS011;10516;51.518;9.864;2022-12-08T06:50:38;28.83;;;15.20;;
20709;SDS011;10516;51.518;9.864;2022-12-08T06:53:04;24.60;;;15.38;;
20709;SDS011;10516;51.518;9.864;2022-12-08T06:55:29;27.13;;;16.05;;
20709;SDS011;10516;51.518;9.864;2022-12-08T06:57:55;26.88;;;15.95;;
20709;SDS011;10516;51.518;9.864;2022-12-08T07:00:20;25.02;;;15.60;;
20709;SDS011;10516;51.518;9.864;2022-12-08T07:02:46;27.58;;;14.88;;
20709;SDS011;10516;51.518;9.864;2022-12-08T07:05:11;22.63;;;14.30;;
20709;SDS011;10516;51.518;9.864;2022-12-08T07:07:36;25.90;;;14.88;;
20709;SDS011;10516;51.518;9.864;2022-12-08T07:10:02;27.33;;;15.18;;
20709;SDS011;10516;51.518;9.864;2022-12-08T07:12:27;33.17;;;15.65;;
20709;SDS011;10516;51.518;9.864;2022-12-08T07:14:53;26.88;;;14.57;;
20709;SDS011;10516;51.518;9.864;2022-12-08T07:17:18;24.20;;;13.48;;
20709;SDS011;10516;51.518;9.864;2022-12-08T07:19:44;29.00;;;16.27;;
20709;SDS011;10516;51.518;9.864;2022-12-08T07:22:09;27.17;;;14.50;;
20709;SDS011;10516;51.518;9.864;2022-12-08T07:24:34;31.30;;;16.58;;
20709;SDS011;10516;51.518;9.864;2022-12-08T07:27:00;25.13;;;15.23;;
20709;SDS011;10516;51.518;9.864;2022-12-08T07:29:25;28.92;;;16.92;;
20709;SDS011;10516;51.518;9.864;2022-12-08T07:31:50;27.73;;;15.73;;
20709;SDS011;10516;51.518;9.864;2022-12-08T07:34:16;28.23;;;15.13;;
20709;SDS011;10516;51.518;9.864;2022-12-08T07:36:41;28.00;;;16.58;;
20709;SDS011;10516;51.518;9.864;2022-12-08T07:39:07;26.40;;;16.88;;
20709;SDS011;10516;51.518;9.864;2022-12-08T07:41:32;30.60;;;19.27;;
20709;SDS011;10516;51.518;9.864;2022-12-08T07:43:59;32.58;;;18.65;;
20709;SDS011;10516;51.518;9.864;2022-12-08T07:46:24;30.00;;;19.30;;
20709;SDS011;10516;51.518;9.864;2022-12-08T07:48:51;31.00;;;18.55;;
20709;SDS011;10516;51.518;9.864;2022-12-08T07:51:17;30.80;;;17.17;;
20709;SDS011;10516;51.518;9.864;2022-12-08T07:53:43;29.38;;;17.65;;
20709;SDS011;10516;51.518;9.864;2022-12-08T07:56:11;32.47;;;20.00;;
20709;SDS011;10516;51.518;9.864;2022-12-08T07:58:37;39.50;;;21.02;;
20709;SDS011;10516;51.518;9.864;2022-12-08T08:01:04;34.72;;;19.60;;
20709;SDS011;10516;51.518;9.864;2022-12-08T08:03:30;36.25;;;22.45;;
20709;SDS011;10516;51.518;9.864;2022-12-08T08:06:01;32.22;;;19.92;;
20709;SDS011;10516;51.518;9.864;2022-12-08T08:08:29;31.95;;;20.17;;
20709;SDS011;10516;51.518;9.864;2022-12-08T08:10:55;25.60;;;17.38;;
20709;SDS011;10516;51.518;9.864;2022-12-08T08:13:21;31.15;;;20.48;;
20709;SDS011;10516;51.518;9.864;2022-12-08T08:15:46;29.90;;;19.42;;
20709;SDS011;10516;51.518;9.864;2022-12-08T08:18:12;31.63;;;17.13;;
20709;SDS011;10516;51.518;9.864;2022-12-08T08:20:37;27.27;;;17.90;;
20709;SDS011;10516;51.518;9.864;2022-12-08T08:23:02;27.15;;;15.88;;
20709;SDS011;10516;51.518;9.864;2022-12-08T08:25:28;29.77;;;16.58;;
20709;SDS011;10516;51.518;9.864;2022-12-08T08:27:53;25.65;;;16.13;;
20709;SDS011;10516;51.518;9.864;2022-12-08T08:30:19;24.60;;;15.57;;
20709;SDS011;10516;51.518;9.864;2022-12-08T08:32:44;25.88;;;14.38;;
20709;SDS011;10516;51.518;9.864;2022-12-08T08:35:10;23.20;;;12.85;;
20709;SDS011;10516;51.518;9.864;2022-12-08T08:37:35;21.08;;;13.93;;
20709;SDS011;10516;51.518;9.864;2022-12-08T08:40:01;22.45;;;13.40;;
20709;SDS011;10516;51.518;9.864;2022-12-08T08:42:26;20.65;;;12.85;;
20709;SDS011;10516;51.518;9.864;2022-12-08T08:44:52;23.73;;;12.98;;
20709;SDS011;10516;51.518;9.864;2022-12-08T08:47:17;16.08;;;11.63;;
20709;SDS011;10516;51.518;9.864;2022-12-08T08:49:43;19.42;;;12.02;;
20709;SDS011;10516;51.518;9.864;2022-12-08T08:52:08;20.23;;;13.27;;
20709;SDS011;10516;51.518;9.864;2022-12-08T08:54:35;19.98;;;13.07;;
20709;SDS011;10516;51.518;9.864;2022-12-08T08:57:00;17.75;;;11.52;;
20709;SDS011;10516;51.518;9.864;2022-12-08T08:59:26;20.42;;;13.05;;
20709;SDS011;10516;51.518;9.864;2022-12-08T09:01:53;17.63;;;12.13;;
20709;SDS011;10516;51.518;9.864;2022-12-08T09:04:19;17.17;;;11.23;;
20709;SDS011;10516;51.518;9.864;2022-12-08T09:06:46;20.25;;;13.00;;
20709;SDS011;10516;51.518;9.864;2022-12-08T09:09:12;18.50;;;12.05;;
20709;SDS011;10516;51.518;9.864;2022-12-08T09:11:38;23.20;;;12.45;;
20709;SDS011;10516;51.518;9.864;2022-12-08T09:14:04;20.13;;;12.07;;
20709;SDS011;10516;51.518;9.864;2022-12-08T09:16:29;18.42;;;10.65;;
20709;SDS011;10516;51.518;9.864;2022-12-08T09:18:55;19.65;;;11.40;;
20709;SDS011;10516;51.518;9.864;2022-12-08T09:21:21;20.00;;;11.60;;
20709;SDS011;10516;51.518;9.864;2022-12-08T09:23:50;19.80;;;11.60;;
20709;SDS011;10516;51.518;9.864;2022-12-08T09:26:17;16.50;;;10.98;;
20709;SDS011;10516;51.518;9.864;2022-12-08T09:28:46;19.15;;;12.38;;
20709;SDS011;10516;51.518;9.864;2022-12-08T09:31:12;21.42;;;13.20;;
20709;SDS011;10516;51.518;9.864;2022-12-08T09:33:38;16.63;;;10.50;;
20709;SDS011;10516;51.518;9.864;2022-12-08T09:36:03;18.05;;;11.50;;
20709;SDS011;10516;51.518;9.864;2022-12-08T09:38:29;17.35;;;10.82;;
20709;SDS011;10516;51.518;9.864;2022-12-08T09:40:55;18.42;;;11.90;;
20709;SDS011;10516;51.518;9.864;2022-12-08T09:43:39;19.42;;;11.77;;
20709;SDS011;10516;51.518;9.864;2022-12-08T09:46:13;17.45;;;11.57;;
20709;SDS011;10516;51.518;9.864;2022-12-08T09:48:42;18.85;;;11.30;;
20709;SDS011;10516;51.518;9.864;2022-12-08T09:51:13;20.63;;;11.48;;
20709;SDS011;10516;51.518;9.864;2022-12-08T09:53:44;15.80;;;11.43;;
20709;SDS011;10516;51.518;9.864;2022-12-08T09:56:15;16.05;;;10.27;;
20709;SDS011;10516;51.518;9.864;2022-12-08T09:58:50;18.85;;;10.43;;
20709;SDS011;10516;51.518;9.864;2022-12-08T10:01:20;20.65;;;11.63;;
20709;SDS011;10516;51.518;9.864;2022-12-08T10:03:50;20.33;;;11.52;;
20709;SDS011;10516;51.518;9.864;2022-12-08T10:09:18;17.70;;;10.07;;
20709;SDS011;10516;51.518;9.864;2022-12-08T10:17:43;17.05;;;10.55;;
20709;SDS011;10516;51.518;9.864;2022-12-08T10:20:19;18.88;;;10.75;;
20709;SDS011;10516;51.518;9.864;2022-12-08T10:22:48;16.55;;;11.18;;
20709;SDS011;10516;51.518;9.864;2022-12-08T10:25:21;23.02;;;14.82;;
20709;SDS011;10516;51.518;9.864;2022-12-08T10:27:54;26.15;;;14.43;;
20709;SDS011;10516;51.518;9.864;2022-12-08T10:30:22;25.80;;;13.25;;
20709;SDS011;10516;51.518;9.864;2022-12-08T10:32:49;24.80;;;14.25;;
20709;SDS011;10516;51.518;9.864;2022-12-08T10:35:16;24.50;;;13.52;;
20709;SDS011;10516;51.518;9.864;2022-12-08T10:37:56;26.33;;;15.52;;
20709;SDS011;10516;51.518;9.864;2022-12-08T10:40:27;25.40;;;12.57;;
20709;SDS011;10516;51.518;9.864;2022-12-08T10:42:58;25.38;;;15.63;;
20709;SDS011;10516;51.518;9.864;2022-12-08T10:45:28;26.77;;;14.82;;
20709;SDS011;10516;51.518;9.864;2022-12-08T10:48:03;28.52;;;14.68;;
20709;SDS011;10516;51.518;9.864;2022-12-08T10:50:47;18.58;;;11.88;;
20709;SDS011;10516;51.518;9.864;2022-12-08T10:53:21;20.83;;;12.80;;
20709;SDS011;10516;51.518;9.864;2022-12-08T10:58:27;21.70;;;13.55;;
20709;SDS011;10516;51.518;9.864;2022-12-08T11:01:16;17.67;;;11.40;;
20709;SDS011;10516;51.518;9.864;2022-12-08T11:03:49;18.88;;;12.00;;
20709;SDS011;10516;51.518;9.864;2022-12-08T11:08:46;19.23;;;12.27;;
20709;SDS011;10516;51.518;9.864;2022-12-08T11:11:14;18.42;;;11.65;;
20709;SDS011;10516;51.518;9.864;2022-12-08T11:13:40;17.63;;;12.00;;
20709;SDS011;10516;51.518;9.864;2022-12-08T11:16:07;16.58;;;12.35;;
20709;SDS011;10516;51.518;9.864;2022-12-08T11:18:41;16.00;;;12.05;;
20709;SDS011;10516;51.518;9.864;2022-12-08T11:21:10;19.58;;;12.43;;
20709;SDS011;10516;51.518;9.864;2022-12-08T11:23:40;25.05;;;12.55;;
20709;SDS011;10516;51.518;9.864;2022-12-08T11:26:31;22.77;;;12.10;;
20709;SDS011;10516;51.518;9.864;2022-12-08T11:28:56;17.58;;;11.75;;
20709;SDS011;10516;51.518;9.864;2022-12-08T11:31:37;17.63;;;13.05;;
20709;SDS011;10516;51.518;9.864;2022-12-08T11:34:08;16.67;;;11.75;;
20709;SDS011;10516;51.518;9.864;2022-12-08T11:36:44;18.38;;;12.02;;
20709;SDS011;10516;51.518;9.864;2022-12-08T11:39:11;16.40;;;10.77;;
20709;SDS011;10516;51.518;9.864;2022-12-08T11:41:38;20.40;;;12.38;;
20709;SDS011;10516;51.518;9.864;2022-12-08T11:47:27;16.73;;;11.18;;
20709;SDS011;10516;51.518;9.864;2022-12-08T11:50:03;15.02;;;10.27;;
20709;SDS011;10516;51.518;9.864;2022-12-08T11:52:47;13.15;;;10.25;;
20709;SDS011;10516;51.518;9.864;2022-12-08T11:58:13;15.07;;;9.88;;
20709;SDS011;10516;51.518;9.864;2022-12-08T12:00:43;13.35;;;9.70;;
20709;SDS011;10516;51.518;9.864;2022-12-08T12:14:17;9.80;;;6.40;;
20709;SDS011;10516;51.518;9.864;2022-12-08T12:17:06;9.00;;;5.78;;
20709;SDS011;10516;51.518;9.864;2022-12-08T12:19:51;11.27;;;7.63;;
20709;SDS011;10516;51.518;9.864;2022-12-08T12:22:19;7.90;;;4.97;;
20709;SDS011;10516;51.518;9.864;2022-12-08T12:24:47;7.45;;;5.00;;
20709;SDS011;10516;51.518;9.864;2022-12-08T12:29:49;10.00;;;6.82;;
20709;SDS011;10516;51.518;9.864;2022-12-08T12:32:17;11.32;;;5.72;;
20709;SDS011;10516;51.518;9.864;2022-12-08T12:34:51;7.25;;;4.70;;
20709;SDS011;10516;51.518;9.864;2022-12-08T12:37:19;7.38;;;5.47;;
20709;SDS011;10516;51.518;9.864;2022-12-08T12:39:52;4.88;;;3.38;;
20709;SDS011;10516;51.518;9.864;2022-12-08T12:53:05;5.60;;;3.67;;
20709;SDS011;10516;51.518;9.864;2022-12-08T12:55:51;4.90;;;3.50;;
20709;SDS011;10516;51.518;9.864;2022-12-08T13:01:20;5.60;;;3.38;;
20709;SDS011;10516;51.518;9.864;2022-12-08T13:03:37;3.83;;;2.67;;
20709;SDS011;10516;51.518;9.864;2022-12-08T13:06:31;3.72;;;3.42;;
20709;SDS011;10516;51.518;9.864;2022-12-08T13:09:01;3.83;;;2.60;;
20709;SDS011;10516;51.518;9.864;2022-12-08T13:11:28;5.90;;;3.50;;
20709;SDS011;10516;51.518;9.864;2022-12-08T13:14:01;6.15;;;3.55;;
20709;SDS011;10516;51.518;9.864;2022-12-08T13:16:36;4.53;;;3.13;;
20709;SDS011;10516;51.518;9.864;2022-12-08T13:19:03;3.60;;;3.03;;
20709;SDS011;10516;51.518;9.864;2022-12-08T13:21:37;3.53;;;2.92;;
20709;SDS011;10516;51.518;9.864;2022-12-08T13:29:28;3.72;;;3.13;;
20709;SDS011;10516;51.518;9.864;2022-12-08T13:32:00;4.55;;;3.53;;
20709;SDS011;10516;51.518;9.864;2022-12-08T13:34:54;3.10;;;2.60;;
20709;SDS011;10516;51.518;9.864;2022-12-08T13:37:27;3.08;;;2.67;;
20709;SDS011;10516;51.518;9.864;2022-12-08T13:42:42;3.95;;;2.83;;
20709;SDS011;10516;51.518;9.864;2022-12-08T13:45:26;3.58;;;3.10;;
20709;SDS011;10516;51.518;9.864;2022-12-08T13:47:57;3.60;;;2.53;;
20709;SDS011;10516;51.518;9.864;2022-12-08T13:50:29;2.60;;;2.40;;
20709;SDS011;10516;51.518;9.864;2022-12-08T13:53:01;3.45;;;2.75;;
20709;SDS011;10516;51.518;9.864;2022-12-08T13:55:39;2.22;;;2.03;;
20709;SDS011;10516;51.518;9.864;2022-12-08T13:58:30;2.88;;;2.55;;
20709;SDS011;10516;51.518;9.864;2022-12-08T14:01:18;2.65;;;2.35;;
20709;SDS011;10516;51.518;9.864;2022-12-08T14:06:17;2.53;;;2.33;;
20709;SDS011;10516;51.518;9.864;2022-12-08T14:08:56;3.28;;;2.67;;
20709;SDS011;10516;51.518;9.864;2022-12-08T14:11:44;2.33;;;2.13;;
20709;SDS011;10516;51.518;9.864;2022-12-08T14:14:22;2.20;;;1.92;;
20709;SDS011;10516;51.518;9.864;2022-12-08T14:17:05;2.33;;;2.13;;
20709;SDS011;10516;51.518;9.864;2022-12-08T14:19:35;2.60;;;2.40;;
20709;SDS011;10516;51.518;9.864;2022-12-08T14:24:30;3.20;;;2.30;;
20709;SDS011;10516;51.518;9.864;2022-12-08T14:26:57;2.90;;;2.55;;
20709;SDS011;10516;51.518;9.864;2022-12-08T14:31:57;7.40;;;3.92;;
20709;SDS011;10516;51.518;9.864;2022-12-08T14:34:22;3.90;;;3.08;;
20709;SDS011;10516;51.518;9.864;2022-12-08T14:36:47;8.73;;;5.40;;
20709;SDS011;10516;51.518;9.864;2022-12-08T14:39:13;11.27;;;5.82;;
20709;SDS011;10516;51.518;9.864;2022-12-08T14:41:39;5.63;;;3.47;;
20709;SDS011;10516;51.518;9.864;2022-12-08T14:44:13;9.35;;;5.63;;
20709;SDS011;10516;51.518;9.864;2022-12-08T14:49:38;5.53;;;4.63;;
20709;SDS011;10516;51.518;9.864;2022-12-08T14:52:08;5.13;;;3.97;;
20709;SDS011;10516;51.518;9.864;2022-12-08T14:54:35;12.65;;;7.47;;
20709;SDS011;10516;51.518;9.864;2022-12-08T14:57:03;9.63;;;8.10;;
20709;SDS011;10516;51.518;9.864;2022-12-08T14:59:30;5.72;;;4.80;;
20709;SDS011;10516;51.518;9.864;2022-12-08T15:05:08;6.43;;;5.35;;
20709;SDS011;10516;51.518;9.864;2022-12-08T15:12:57;25.60;;;8.68;;
20709;SDS011;10516;51.518;9.864;2022-12-08T15:15:26;14.88;;;7.28;;
20709;SDS011;10516;51.518;9.864;2022-12-08T15:18:12;11.43;;;7.35;;
20709;SDS011;10516;51.518;9.864;2022-12-08T15:20:53;6.30;;;4.97;;
20709;SDS011;10516;51.518;9.864;2022-12-08T15:23:25;7.22;;;5.40;;
20709;SDS011;10516;51.518;9.864;2022-12-08T15:25:53;7.60;;;4.82;;
20709;SDS011;10516;51.518;9.864;2022-12-08T15:28:20;7.60;;;5.07;;
20709;SDS011;10516;51.518;9.864;2022-12-08T15:30:51;6.18;;;5.43;;
20709;SDS011;10516;51.518;9.864;2022-12-08T15:33:18;7.53;;;6.15;;
20709;SDS011;10516;51.518;9.864;2022-12-08T15:35:44;8.30;;;6.25;;
20709;SDS011;10516;51.518;9.864;2022-12-08T15:38:29;6.97;;;4.53;;
20709;SDS011;10516;51.518;9.864;2022-12-08T15:40:55;6.30;;;4.13;;
20709;SDS011;10516;51.518;9.864;2022-12-08T15:43:23;4.60;;;3.95;;
20709;SDS011;10516;51.518;9.864;2022-12-08T15:45:49;5.00;;;4.20;;
20709;SDS011;10516;51.518;9.864;2022-12-08T15:48:19;5.03;;;3.92;;
20709;SDS011;10516;51.518;9.864;2022-12-08T15:50:46;4.00;;;3.53;;
20709;SDS011;10516;51.518;9.864;2022-12-08T15:53:12;6.13;;;4.18;;
20709;SDS011;10516;51.518;9.864;2022-12-08T15:55:38;5.93;;;4.25;;
20709;SDS011;10516;51.518;9.864;2022-12-08T15:58:03;4.47;;;4.05;;
20709;SDS011;10516;51.518;9.864;2022-12-08T16:00:31;4.32;;;3.80;;
20709;SDS011;10516;51.518;9.864;2022-12-08T16:02:58;5.75;;;3.80;;
20709;SDS011;10516;51.518;9.864;2022-12-08T16:05:26;5.45;;;4.47;;
20709;SDS011;10516;51.518;9.864;2022-12-08T16:07:56;5.60;;;4.35;;
20709;SDS011;10516;51.518;9.864;2022-12-08T16:10:22;8.40;;;6.70;;
20709;SDS011;10516;51.518;9.864;2022-12-08T16:12:49;5.78;;;4.25;;
20709;SDS011;10516;51.518;9.864;2022-12-08T16:15:36;5.18;;;4.65;;
20709;SDS011;10516;51.518;9.864;2022-12-08T16:18:03;7.53;;;5.43;;
20709;SDS011;10516;51.518;9.864;2022-12-08T16:20:28;13.98;;;9.25;;
20709;SDS011;10516;51.518;9.864;2022-12-08T16:22:54;18.02;;;11.27;;